Terminal Aerodrome Forecast
Issued by NWS Charleston, WV

Current Version | Previous Version | Text Only | Print | Product List | Glossary Off
Versions: 1 2 3 4 5 6 7 8 9 10 11 12 13 14 15 16 17 18 19 20 21 22 23 24

028
FTUS41 KRLX 152049 AAA
TAFHTS
TAF AMD
KHTS 152049Z 1521/1618 23011G21KT P6SM BKN035 OVC050
      TEMPO 1521/1524 5SM -SHRA BKN025 OVC035
     FM160000 22013G29KT 6SM -SHRA OVC020
     FM160300 22009G18KT 3SM -SHRA BKN015 OVC025
     FM160900 23009G17KT 2SM -SHRA OVC008
     FM161100 27010G16KT 3SM -SHRA OVC010=

USA.gov is the U.S. government's official web portal to all federal, state and local government web resources and services.